Flight Track Log - Related Links

Times and Time Zones

All times are in EDT time to prevent confusion due to time zone crossing. See the WIG7117 flight status page for this flight to view local times or setup timezone preferences in your user account.

Time Position Orientation Groundspeed Altitude Reporting Facility
EDT Latitude Longitude Course Direction KTS MPH feet Rate Location/Type
Fri 09:34:58 PM 42.7631 -73.8089 326° Northwest 102 117 1,000  Level Boston Center
Fri 09:36:05 PM 42.7878 -73.8319 326° Northwest 124 143 2,200 1,125 Climbing Boston Center
Fri 09:37:06 PM 42.7956 -73.8803 282° West 130 150 3,400 1,190 Climbing Boston Center
Fri 09:38:06 PM 42.8033 -73.9314 282° West 135 155 4,600 1,190 Climbing Boston Center
Fri 09:39:07 PM 42.8089 -73.9769 279° West 131 151 5,800 1,091 Climbing Boston Center
Fri 09:40:07 PM 42.8186 -74.0281 285° West 130 150 6,800 1,041 Climbing Boston Center
Fri 09:41:08 PM 42.8264 -74.0764 282° West 133 153 7,900 1,033 Climbing Boston Center
Fri 09:42:09 PM 42.8319 -74.1219 279° West 129 148 8,900 992 Climbing Boston Center
Fri 09:43:09 PM 42.8414 -74.1758 283° West 125 144 9,900 545 Climbing Boston Center
Fri 09:44:10 PM 42.8492 -74.2269 282° West 154 177 10,000 50 Climbing Boston Center
Fri 09:45:09 PM 42.8586 -74.2839 283° West 174 200 10,000  Level Boston Center
Fri 09:45:39 PM 42.8622 -74.3181 278° West 170 196 10,000  Level Boston Center
Fri 09:46:40 PM 42.8694 -74.3778 279° West 162 186 10,000  Level Boston Center
Fri 09:47:40 PM 42.8789 -74.4406 282° West 161 185 10,000 -50 Level Boston Center
Fri 09:48:41 PM 42.8883 -74.4975 283° West 162 186 9,900  Descending Boston Center
Fri 09:49:42 PM 42.8975 -74.5600 281° West 163 188 10,000 50 Climbing Boston Center
Fri 09:50:42 PM 42.9067 -74.6228 281° West 163 188 10,000  Level Boston Center
Fri 09:51:49 PM 42.9158 -74.6883 281° West 163 188 10,000  Level Boston Center
Fri 09:52:49 PM 42.9250 -74.7511 281° West 163 188 10,000  Level Boston Center
Fri 09:53:44 PM 42.9322 -74.8053 280° West 166 191 10,000  Level Boston Center
Fri 09:54:45 PM 42.9414 -74.8681 281° West 167 192 10,000  Level Boston Center
Fri 09:55:45 PM 42.9483 -74.9306 279° West 169 194 10,000  Level Boston Center
Fri 09:56:52 PM 42.9614 -75.0050 284° West 170 196 10,000  Level Boston Center
Fri 09:57:53 PM 42.9703 -75.0650 281° West 168 193 10,000  Level Boston Center
Fri 09:58:47 PM 42.9772 -75.1247 279° West 168 193 10,000  Level Boston Center
Fri 09:59:48 PM 42.9864 -75.1850 282° West 167 192 10,000  Level Boston Center
Fri 10:00:48 PM 42.9953 -75.2450 281° West 164 189 10,000  Level Boston Center
Fri 10:01:49 PM 43.0042 -75.3078 281° West 163 188 10,000  Level Boston Center
Fri 10:02:50 PM 43.0108 -75.3678 279° West 162 186 10,000 -142 Level Boston Center
Fri 10:03:56 PM 43.0153 -75.4389 275° West 163 188 9,700 -472 Descending Boston Center
Fri 10:04:57 PM 43.0219 -75.5017 278° West 170 196 9,000 -694 Descending Boston Center
Fri 10:05:57 PM 43.0267 -75.5617 276° West 167 192 8,300 -694 Descending Boston Center
Fri 10:06:58 PM 43.0269 -75.6269 270° West 166 191 7,600 -689 Descending Boston Center
Fri 10:07:59 PM 43.0231 -75.6864 265° West 161 185 6,900 -709 Descending Boston Center
Fri 10:09:05 PM 43.0169 -75.7572 263° West 157 181 6,100 -425 Descending Boston Center
Fri 10:10:06 PM 43.0131 -75.8167 265° West 158 182 6,000 -103 Descending Boston Center
Fri 10:11:01 PM 43.0053 -75.8731 259° West 157 181 5,900 -440 Descending Boston Center
Fri 10:11:55 PM 42.9994 -75.9236 261° West 161 185 5,200 -835 Descending Boston Center
Fri 10:12:56 PM 42.9956 -75.9831 265° West 159 183 4,300 -843 Descending Boston Center
Fri 10:13:56 PM 43.0019 -76.0431 278° West 151 174 3,500 -397 Descending Boston Center
Fri 10:14:57 PM 43.0086 -76.1003 279° West 149 171 3,500  Level Boston Center
Fri 10:15:58 PM 43.0150 -76.1575 279° West 151 174 3,500  Level Boston Center
Fri 10:16:58 PM 43.0194 -76.2117 276° West 150 173 3,500 -209 Level Boston Center
Fri 10:17:53 PM 43.0261 -76.2661 280° West 148 170 3,100 -522 Descending Boston Center
Fri 10:18:53 PM 43.0347 -76.3178 283° West 143 165 2,500 -298 Descending Boston Center
Fri 10:19:54 PM 43.0631 -76.3425 327° Northwest 129 148 2,500  Level Boston Center
Fri 10:20:56 PM 43.0928 -76.3244 24° Northeast 126 145 2,500  Level Boston Center
Fri 10:21:55 PM 43.1025 -76.2825 72° East 124 143 2,500 -250 Level Boston Center
Fri 10:22:56 PM 43.1019 -76.2369 91° East 121 139 2,000 -595 Descending Boston Center
Fri 10:23:56 PM 43.1058 -76.1886 84° East 120 138 1,300 -700 Descending Boston Center
Fri 10:25:00 PM 43.1021 -76.1317 95° East  Level FlightAware Approximate
Fri 10:32:00 PM 43.1000 -76.1000 90° East  Level FlightAware Approximate

Login

Don't have an account? Register now (free) for customized features, flight alerts, and more!